Time;durP1;ratioP1;P1;durP2;ratioP2;P2;SDS_P1;SDS_P2;PMS_P1;PMS_P2;Temp;Humidity;BMP_temperature;BMP_pressure;BME280_temperature;BME280_humidity;BME280_pressure;Samples;Min_cycle;Max_cycle;Signal;HPM_P1;HPM_P2
2023/08/26 00:02:14;;;;;;;2.80;2.60;;;20.70;99.90;;;;;;5063236;28;20562;-80
2023/08/26 00:04:41;;;;;;;2.33;2.23;;;20.70;99.90;;;;;;5059193;28;20472;-80
2023/08/26 00:07:08;;;;;;;4.40;3.97;;;20.70;99.90;;;;;;5055423;28;20511;-78
2023/08/26 00:09:35;;;;;;;2.90;2.70;;;20.70;99.90;;;;;;5063169;28;20478;-81
2023/08/26 00:12:03;;;;;;;3.20;2.97;;;20.60;99.90;;;;;;5059646;28;20491;-79
2023/08/26 00:14:31;;;;;;;2.83;2.63;;;20.60;99.90;;;;;;5062226;28;20483;-80
2023/08/26 00:16:58;;;;;;;2.70;2.50;;;20.60;99.90;;;;;;5056442;28;20547;-81
2023/08/26 00:19:25;;;;;;;4.93;2.77;;;20.50;99.90;;;;;;5062941;28;20950;-80
2023/08/26 00:21:52;;;;;;;3.10;2.53;;;20.40;99.90;;;;;;5055043;28;20484;-81
2023/08/26 00:24:19;;;;;;;3.83;2.77;;;20.30;99.90;;;;;;5054943;28;20472;-79
2023/08/26 00:26:46;;;;;;;5.60;4.00;;;20.30;99.90;;;;;;5056064;28;20501;-79
2023/08/26 00:29:15;;;;;;;3.77;3.47;;;20.20;99.90;;;;;;5056669;28;20850;-80
2023/08/26 00:31:41;;;;;;;3.20;2.90;;;20.20;99.90;;;;;;5065331;28;20484;-78
2023/08/26 00:34:08;;;;;;;2.63;2.43;;;20.30;99.90;;;;;;5058950;28;20538;-80
2023/08/26 00:36:35;;;;;;;3.40;3.17;;;20.10;99.90;;;;;;5065501;28;20471;-79
2023/08/26 00:39:02;;;;;;;2.93;2.60;;;20.10;99.90;;;;;;5058723;28;20566;-82
2023/08/26 00:41:29;;;;;;;3.63;3.30;;;19.90;99.90;;;;;;5057778;28;20528;-79
2023/08/26 00:43:56;;;;;;;3.27;2.83;;;20.00;99.90;;;;;;5061449;28;20457;-80
2023/08/26 00:46:25;;;;;;;4.60;3.90;;;19.90;99.90;;;;;;5058989;28;20871;-79
2023/08/26 00:48:52;;;;;;;4.63;3.60;;;19.90;99.90;;;;;;5058809;28;20490;-79
2023/08/26 00:51:20;;;;;;;4.00;3.70;;;19.80;99.90;;;;;;5060197;28;21031;-79
2023/08/26 00:53:47;;;;;;;4.10;3.80;;;19.80;99.90;;;;;;5062919;28;20464;-79
2023/08/26 00:56:15;;;;;;;4.63;4.20;;;19.90;99.90;;;;;;5061751;28;20487;-80
2023/08/26 00:58:42;;;;;;;4.90;4.50;;;19.80;99.90;;;;;;5064776;28;20982;-81
2023/08/26 01:01:09;;;;;;;4.50;4.10;;;19.80;99.90;;;;;;5054148;28;20897;-80
2023/08/26 01:03:39;;;;;;;6.47;5.87;;;19.80;99.90;;;;;;5062302;28;20946;-79
2023/08/26 01:06:06;;;;;;;4.03;3.23;;;19.80;99.90;;;;;;5058669;28;20472;-81
2023/08/26 01:08:34;;;;;;;5.40;3.93;;;19.80;99.90;;;;;;5066992;28;20949;-79
2023/08/26 01:11:08;;;;;;;7.00;6.30;;;19.80;99.90;;;;;;5065192;28;20479;-80
2023/08/26 01:13:42;;;;;;;5.53;5.00;;;19.70;99.90;;;;;;5064778;28;20454;-80
2023/08/26 01:16:11;;;;;;;4.07;3.87;;;19.70;99.90;;;;;;5066605;28;20575;-79
2023/08/26 01:18:40;;;;;;;5.77;5.27;;;19.70;99.90;;;;;;5065424;28;20546;-80
2023/08/26 01:21:09;;;;;;;4.10;3.80;;;19.70;99.90;;;;;;5063370;28;20565;-78
2023/08/26 01:23:40;;;;;;;5.00;4.60;;;19.60;99.90;;;;;;5066271;28;20514;-80
2023/08/26 01:26:07;;;;;;;4.70;4.40;;;19.70;99.90;;;;;;5066902;28;20464;-80
2023/08/26 01:28:34;;;;;;;5.93;3.03;;;19.70;99.90;;;;;;5066006;28;20516;-79
2023/08/26 01:31:05;;;;;;;3.50;3.20;;;19.60;99.90;;;;;;5061711;28;20922;-81
2023/08/26 01:33:37;;;;;;;3.67;3.37;;;19.60;99.90;;;;;;5064836;28;20467;-80
2023/08/26 01:36:07;;;;;;;3.80;3.40;;;19.60;99.90;;;;;;5065632;28;20483;-81
2023/08/26 01:38:35;;;;;;;4.90;3.87;;;19.60;99.90;;;;;;5066087;28;20520;-80
2023/08/26 01:41:03;;;;;;;7.20;4.73;;;19.60;99.90;;;;;;5066177;28;21202;-80
2023/08/26 01:43:32;;;;;;;4.43;4.13;;;19.70;99.90;;;;;;5064433;28;20532;-80
2023/08/26 01:45:59;;;;;;;7.60;5.20;;;19.70;99.90;;;;;;5064040;28;20438;-79
2023/08/26 01:48:26;;;;;;;5.47;4.90;;;19.70;99.90;;;;;;5066270;28;20556;-80
2023/08/26 01:50:53;;;;;;;4.17;3.80;;;19.60;99.90;;;;;;5065414;28;20498;-79
2023/08/26 01:53:20;;;;;;;5.27;4.77;;;19.60;99.90;;;;;;5065476;28;21252;-79
2023/08/26 01:55:47;;;;;;;4.20;3.87;;;19.50;99.90;;;;;;5068300;28;20478;-80
2023/08/26 01:58:15;;;;;;;3.93;3.60;;;19.40;99.90;;;;;;5065994;28;20959;-80
2023/08/26 02:00:42;;;;;;;3.90;3.63;;;19.40;99.90;;;;;;5065902;28;20510;-80
2023/08/26 02:03:09;;;;;;;5.70;4.23;;;19.40;99.90;;;;;;5064674;28;21062;-80
2023/08/26 02:05:36;;;;;;;4.73;4.10;;;19.20;99.90;;;;;;5064788;28;20537;-79
2023/08/26 02:08:03;;;;;;;3.77;3.47;;;19.20;99.90;;;;;;5064902;28;20459;-82
2023/08/26 02:10:30;;;;;;;4.97;4.47;;;19.20;99.90;;;;;;5064710;28;20486;-79
2023/08/26 02:12:57;;;;;;;3.43;3.13;;;19.20;99.90;;;;;;5065996;28;20473;-80
2023/08/26 02:15:25;;;;;;;4.40;4.00;;;19.30;99.90;;;;;;5063335;28;20471;-81
2023/08/26 02:17:52;;;;;;;3.97;3.73;;;19.30;99.90;;;;;;5067729;28;20925;-79
2023/08/26 02:20:19;;;;;;;4.07;3.67;;;19.30;99.90;;;;;;5070108;28;20515;-80
2023/08/26 02:22:46;;;;;;;6.47;3.80;;;19.30;99.90;;;;;;5069479;28;20478;-79
2023/08/26 02:25:13;;;;;;;4.30;3.90;;;19.30;99.90;;;;;;5067716;28;20479;-80
2023/08/26 02:27:40;;;;;;;3.90;3.67;;;19.30;99.90;;;;;;5068458;28;20482;-80
2023/08/26 02:30:09;;;;;;;3.30;3.10;;;19.20;99.90;;;;;;5067891;28;20452;-81
2023/08/26 02:32:38;;;;;;;4.43;4.13;;;19.20;99.90;;;;;;5067628;28;20450;-80
2023/08/26 02:35:05;;;;;;;3.37;3.07;;;19.00;99.90;;;;;;5066686;28;20481;-80
2023/08/26 02:37:33;;;;;;;3.40;3.10;;;18.90;99.90;;;;;;5068335;28;20482;-79
2023/08/26 02:40:00;;;;;;;3.00;2.70;;;18.80;99.90;;;;;;5065366;28;20609;-80
2023/08/26 02:42:29;;;;;;;5.57;3.20;;;18.80;99.90;;;;;;5061634;28;20472;-81
2023/08/26 02:44:56;;;;;;;4.07;3.43;;;18.70;99.90;;;;;;5065591;28;20468;-80
2023/08/26 02:47:23;;;;;;;4.20;3.73;;;18.80;99.90;;;;;;5065440;28;20597;-79
2023/08/26 02:49:51;;;;;;;4.00;3.70;;;18.80;99.90;;;;;;5068890;28;20496;-79
2023/08/26 02:52:18;;;;;;;4.47;3.50;;;18.80;99.90;;;;;;5068949;28;20493;-81
2023/08/26 02:54:45;;;;;;;3.27;3.07;;;18.70;99.90;;;;;;5063315;28;20960;-82
2023/08/26 02:57:11;;;;;;;3.90;3.50;;;18.80;99.90;;;;;;5057078;28;20493;-82
2023/08/26 02:59:38;;;;;;;5.00;3.60;;;18.80;99.90;;;;;;5069462;28;20502;-80
2023/08/26 03:02:07;;;;;;;10.60;4.67;;;18.90;99.90;;;;;;5069618;28;20497;-80
2023/08/26 03:04:34;;;;;;;4.17;3.77;;;18.80;99.90;;;;;;5067949;28;20460;-79
2023/08/26 03:07:02;;;;;;;5.27;3.63;;;18.90;99.90;;;;;;5067707;28;20469;-80
2023/08/26 03:09:29;;;;;;;4.87;4.40;;;19.00;99.90;;;;;;5069682;28;20449;-78
2023/08/26 03:11:56;;;;;;;3.87;3.57;;;18.90;99.90;;;;;;5053933;28;20473;-80
2023/08/26 03:14:23;;;;;;;3.13;2.93;;;18.80;99.90;;;;;;5061312;28;20724;-80
2023/08/26 03:16:50;;;;;;;3.20;3.00;;;18.80;99.90;;;;;;5049955;28;20468;-80
2023/08/26 03:19:17;;;;;;;3.00;2.70;;;18.80;99.90;;;;;;5066130;28;20536;-79
2023/08/26 03:21:44;;;;;;;3.13;2.93;;;18.90;99.90;;;;;;5067616;28;20600;-78
2023/08/26 03:24:12;;;;;;;3.87;2.97;;;18.90;99.90;;;;;;5069149;28;20478;-81
2023/08/26 03:26:39;;;;;;;3.53;3.23;;;18.90;99.90;;;;;;5068791;28;20475;-82
2023/08/26 03:29:06;;;;;;;5.23;3.13;;;18.90;99.90;;;;;;5066773;28;20470;-80
2023/08/26 03:31:33;;;;;;;3.20;3.00;;;18.90;99.90;;;;;;5068245;28;20493;-81
2023/08/26 03:34:00;;;;;;;6.43;3.00;;;18.90;99.90;;;;;;5068695;28;20453;-80
2023/08/26 03:36:27;;;;;;;6.17;4.07;;;18.90;99.90;;;;;;5055752;28;20489;-79
2023/08/26 03:38:55;;;;;;;4.10;3.47;;;18.80;99.90;;;;;;5064022;28;20515;-78
2023/08/26 03:41:23;;;;;;;3.97;3.07;;;18.70;99.90;;;;;;5061792;28;20920;-79
2023/08/26 03:43:50;;;;;;;3.87;3.57;;;18.70;99.90;;;;;;5068541;28;20957;-81
2023/08/26 03:46:17;;;;;;;4.23;3.83;;;18.60;99.90;;;;;;5061119;28;20549;-81
2023/08/26 03:48:44;;;;;;;4.83;3.40;;;18.60;99.90;;;;;;5067741;28;20542;-78
2023/08/26 03:51:11;;;;;;;4.03;3.73;;;18.50;99.90;;;;;;5067544;28;20463;-80
2023/08/26 03:53:37;;;;;;;2.53;2.30;;;18.60;99.90;;;;;;5068429;28;20522;-78
2023/08/26 03:56:05;;;;;;;3.60;3.30;;;18.50;99.90;;;;;;5067324;28;20524;-79
2023/08/26 03:58:34;;;;;;;3.30;3.10;;;18.50;99.90;;;;;;5067993;28;20470;-79
2023/08/26 04:01:02;;;;;;;3.33;2.90;;;18.50;99.90;;;;;;5066519;28;20580;-80
2023/08/26 04:03:29;;;;;;;4.30;3.10;;;18.50;99.90;;;;;;5067970;28;20449;-81
2023/08/26 04:06:00;;;;;;;3.00;2.70;;;18.50;99.90;;;;;;5064188;28;20597;-79
2023/08/26 04:08:27;;;;;;;5.73;2.77;;;18.50;99.90;;;;;;5067515;28;20451;-81
2023/08/26 04:10:56;;;;;;;2.57;2.17;;;18.50;99.90;;;;;;5067284;28;20478;-80
2023/08/26 04:13:24;;;;;;;4.63;3.60;;;18.60;99.90;;;;;;5065355;28;20805;-81
2023/08/26 04:15:54;;;;;;;3.80;3.00;;;18.70;99.90;;;;;;5065193;28;20462;-80
2023/08/26 04:18:21;;;;;;;4.70;2.70;;;18.70;99.90;;;;;;5067609;28;21084;-79
2023/08/26 04:20:48;;;;;;;5.20;4.80;;;18.80;99.90;;;;;;5066674;28;20570;-79
2023/08/26 04:23:15;;;;;;;3.80;2.80;;;18.70;99.90;;;;;;5066778;28;20495;-81
2023/08/26 04:25:43;;;;;;;3.83;2.60;;;18.90;99.90;;;;;;5065532;28;20545;-81
2023/08/26 04:28:11;;;;;;;5.30;2.93;;;18.90;99.90;;;;;;5070925;28;20471;-80
2023/08/26 04:30:38;;;;;;;3.23;3.03;;;18.80;99.90;;;;;;5067732;28;20970;-80
2023/08/26 04:33:07;;;;;;;4.07;2.77;;;18.80;99.90;;;;;;5067141;28;20853;-79
2023/08/26 04:35:34;;;;;;;2.63;2.40;;;18.80;99.90;;;;;;5065960;28;20490;-80
2023/08/26 04:38:01;;;;;;;2.93;2.37;;;18.80;99.90;;;;;;5067083;28;20480;-80
2023/08/26 04:40:28;;;;;;;4.10;3.57;;;18.80;99.90;;;;;;5066311;28;20515;-79
2023/08/26 04:42:56;;;;;;;2.90;2.63;;;18.90;99.90;;;;;;5066669;28;20528;-81
2023/08/26 04:45:23;;;;;;;3.23;2.93;;;18.90;99.90;;;;;;5061064;28;20832;-79
2023/08/26 04:47:51;;;;;;;6.87;3.70;;;19.00;99.90;;;;;;5062008;28;20454;-81
2023/08/26 04:50:19;;;;;;;3.73;3.33;;;18.90;99.90;;;;;;5060209;28;20442;-81
2023/08/26 04:52:46;;;;;;;6.83;2.80;;;19.00;99.90;;;;;;5065504;28;20502;-81
2023/08/26 04:55:13;;;;;;;10.17;2.50;;;19.10;99.90;;;;;;5058778;28;20490;-82
2023/08/26 04:57:40;;;;;;;5.57;2.60;;;19.20;99.90;;;;;;5063673;28;20475;-81
2023/08/26 05:00:10;;;;;;;3.10;2.90;;;19.40;99.90;;;;;;5055409;28;20512;-83
2023/08/26 05:02:37;;;;;;;3.27;3.07;;;19.40;99.90;;;;;;5063303;28;20489;-83
2023/08/26 05:05:05;;;;;;;6.47;3.80;;;19.30;99.90;;;;;;5056884;28;20510;-81
2023/08/26 05:07:33;;;;;;;3.93;3.50;;;19.30;99.90;;;;;;5062401;28;20508;-83
2023/08/26 05:10:00;;;;;;;4.60;4.23;;;19.30;99.90;;;;;;5057713;28;21122;-80
2023/08/26 05:12:27;;;;;;;4.57;4.23;;;19.20;99.90;;;;;;5059235;28;20533;-82
2023/08/26 05:14:54;;;;;;;6.37;4.60;;;19.10;99.90;;;;;;5064757;28;20501;-82
2023/08/26 05:17:21;;;;;;;5.40;4.90;;;19.10;99.90;;;;;;5055104;28;20569;-81
2023/08/26 05:19:48;;;;;;;4.87;4.40;;;19.20;99.90;;;;;;5065540;28;20510;-80
2023/08/26 05:22:15;;;;;;;6.57;4.80;;;19.20;99.90;;;;;;5056402;28;20449;-82
2023/08/26 05:24:43;;;;;;;4.33;3.97;;;19.20;99.90;;;;;;5061987;28;20499;-81
2023/08/26 05:27:10;;;;;;;7.03;6.33;;;19.30;99.90;;;;;;5056330;28;20467;-82
2023/08/26 05:29:37;;;;;;;6.47;5.87;;;19.30;99.90;;;;;;5059623;28;20483;-80
2023/08/26 05:32:05;;;;;;;8.13;7.00;;;19.40;99.90;;;;;;5056323;28;20549;-82
2023/08/26 05:34:32;;;;;;;8.63;7.83;;;19.50;99.90;;;;;;5057566;28;20457;-81
2023/08/26 05:36:59;;;;;;;7.90;7.20;;;19.60;99.90;;;;;;5058285;28;20464;-81
2023/08/26 05:39:26;;;;;;;8.83;8.03;;;19.70;99.90;;;;;;5063991;28;20500;-79
2023/08/26 05:41:54;;;;;;;7.90;7.10;;;19.70;99.90;;;;;;5062480;28;21048;-81
2023/08/26 05:44:21;;;;;;;9.77;8.30;;;19.70;99.90;;;;;;5054364;28;20465;-80
2023/08/26 05:46:48;;;;;;;9.77;7.17;;;19.80;99.90;;;;;;5060451;28;21079;-81
2023/08/26 05:49:15;;;;;;;7.20;6.53;;;19.80;99.90;;;;;;5065906;28;20456;-79
2023/08/26 05:51:42;;;;;;;8.67;6.13;;;19.80;99.90;;;;;;5066792;28;20460;-81
2023/08/26 05:54:09;;;;;;;6.97;6.27;;;19.80;99.90;;;;;;5068853;28;20498;-82
2023/08/26 05:56:36;;;;;;;6.40;5.43;;;19.80;99.90;;;;;;5068822;28;20459;-81
2023/08/26 05:59:04;;;;;;;6.17;5.60;;;19.80;99.90;;;;;;5069673;28;21014;-80
2023/08/26 06:01:31;;;;;;;6.10;5.60;;;19.80;99.90;;;;;;5069265;28;20528;-79
2023/08/26 06:04:00;;;;;;;10.00;5.43;;;19.90;99.90;;;;;;5070033;28;20481;-81
2023/08/26 06:06:27;;;;;;;9.47;6.47;;;19.90;99.90;;;;;;5066237;28;20470;-80
2023/08/26 06:08:54;;;;;;;7.33;6.83;;;20.00;99.90;;;;;;5069806;28;20933;-80
2023/08/26 06:11:21;;;;;;;7.00;6.30;;;20.00;99.90;;;;;;5070428;28;20470;-81
2023/08/26 06:13:48;;;;;;;7.10;6.50;;;20.10;99.90;;;;;;5068128;28;20531;-79
2023/08/26 06:16:19;;;;;;;6.87;6.30;;;20.10;99.90;;;;;;5068356;28;21155;-80
2023/08/26 06:18:46;;;;;;;5.67;5.10;;;20.20;99.90;;;;;;5069290;28;20519;-79
2023/08/26 06:21:13;;;;;;;6.97;6.23;;;20.20;99.90;;;;;;5067734;28;20475;-80
2023/08/26 06:23:40;;;;;;;6.20;5.63;;;20.40;99.90;;;;;;5068615;28;20512;-78
2023/08/26 06:26:07;;;;;;;9.87;5.57;;;20.40;99.90;;;;;;5063344;28;20533;-77
2023/08/26 06:28:34;;;;;;;5.60;5.13;;;20.50;99.90;;;;;;5064923;28;20472;-82
2023/08/26 06:31:02;;;;;;;6.20;5.60;;;20.60;99.90;;;;;;5054167;28;20445;-81
2023/08/26 06:33:30;;;;;;;6.00;5.40;;;20.70;99.90;;;;;;5058112;28;20886;-79
2023/08/26 06:35:58;;;;;;;5.40;5.00;;;20.80;99.90;;;;;;5061790;28;20456;-81
2023/08/26 06:38:25;;;;;;;5.40;5.00;;;20.90;99.90;;;;;;5066134;28;20559;-81
2023/08/26 06:40:55;;;;;;;7.40;4.60;;;21.00;99.90;;;;;;5065218;28;20519;-80
2023/08/26 06:43:22;;;;;;;4.03;3.60;;;21.10;99.90;;;;;;5057000;28;20480;-81
2023/08/26 06:45:49;;;;;;;6.40;5.00;;;21.20;99.90;;;;;;5063719;28;20907;-80
2023/08/26 06:48:17;;;;;;;5.70;5.20;;;21.40;99.90;;;;;;5065587;28;20460;-81
2023/08/26 06:50:50;;;;;;;6.07;5.57;;;21.30;99.90;;;;;;5064453;28;20483;-80
2023/08/26 06:53:20;;;;;;;6.20;5.60;;;21.40;99.90;;;;;;5052170;28;20498;-80
2023/08/26 06:55:51;;;;;;;6.30;5.27;;;21.60;99.90;;;;;;5057760;28;20461;-80
2023/08/26 06:58:19;;;;;;;5.27;4.87;;;21.80;99.90;;;;;;5061895;28;20452;-81
2023/08/26 07:00:47;;;;;;;5.57;4.97;;;21.90;99.90;;;;;;5061765;28;20504;-81
2023/08/26 07:03:14;;;;;;;3.20;2.93;;;22.00;99.90;;;;;;5063635;28;20458;-81
2023/08/26 07:05:44;;;;;;;3.97;3.67;;;22.00;99.90;;;;;;5066533;28;20488;-82
2023/08/26 07:08:13;;;;;;;3.93;3.67;;;22.00;99.90;;;;;;5066322;28;20902;-81
2023/08/26 07:10:40;;;;;;;3.30;3.10;;;21.80;99.90;;;;;;5063879;28;20533;-80
2023/08/26 07:13:07;;;;;;;4.73;3.60;;;21.80;99.90;;;;;;5065301;28;21126;-82
2023/08/26 07:15:34;;;;;;;4.73;4.30;;;21.70;99.90;;;;;;5060717;28;20464;-81
2023/08/26 07:18:01;;;;;;;3.40;3.10;;;21.60;99.90;;;;;;5059431;28;20476;-81
2023/08/26 07:20:28;;;;;;;4.80;3.33;;;21.50;99.90;;;;;;5062120;28;20491;-80
2023/08/26 07:22:55;;;;;;;3.77;3.47;;;21.40;99.90;;;;;;5051906;28;20504;-81
2023/08/26 07:25:23;;;;;;;4.97;3.60;;;21.40;99.90;;;;;;5065085;28;20522;-82
2023/08/26 07:27:51;;;;;;;2.90;2.70;;;21.40;99.90;;;;;;5067148;28;20796;-81
2023/08/26 07:30:18;;;;;;;4.30;3.60;;;21.60;99.90;;;;;;5056110;28;20449;-82
2023/08/26 07:32:44;;;;;;;4.70;3.23;;;21.80;99.90;;;;;;5062731;28;20491;-82
2023/08/26 07:35:11;;;;;;;2.87;2.53;;;21.90;99.90;;;;;;5065439;28;21056;-82
2023/08/26 07:37:38;;;;;;;2.83;2.63;;;22.10;99.90;;;;;;5063750;28;20481;-81
2023/08/26 07:40:13;;;;;;;2.80;2.60;;;22.30;99.90;;;;;;5063183;28;20548;-81
2023/08/26 07:42:42;;;;;;;3.47;3.27;;;22.30;99.90;;;;;;5059231;28;20518;-81
2023/08/26 07:45:09;;;;;;;3.13;2.57;;;22.30;99.90;;;;;;5067400;28;20497;-81
2023/08/26 07:47:36;;;;;;;2.87;2.63;;;22.60;99.90;;;;;;5064984;28;20483;-81
2023/08/26 07:50:03;;;;;;;6.27;3.47;;;22.50;99.90;;;;;;5062277;28;20461;-81
2023/08/26 07:52:30;;;;;;;2.40;2.20;;;22.70;99.90;;;;;;5059994;28;20469;-82
2023/08/26 07:54:57;;;;;;;2.70;2.50;;;22.90;99.90;;;;;;5065695;28;20437;-80
2023/08/26 07:57:24;;;;;;;2.50;2.30;;;23.20;99.90;;;;;;5060643;28;20505;-81
2023/08/26 07:59:52;;;;;;;3.17;2.87;;;23.40;99.90;;;;;;5065158;28;20456;-81
2023/08/26 08:02:19;;;;;;;2.93;2.30;;;23.40;99.90;;;;;;5059294;28;21261;-80
2023/08/26 08:04:46;;;;;;;7.63;2.53;;;23.40;99.90;;;;;;5055606;28;20472;-81
2023/08/26 08:07:13;;;;;;;5.23;3.10;;;23.30;99.90;;;;;;5062925;28;21047;-82
2023/08/26 08:09:41;;;;;;;3.00;2.57;;;23.00;99.90;;;;;;5066522;28;20471;-81
2023/08/26 08:12:09;;;;;;;3.63;3.30;;;22.60;99.90;;;;;;5062857;28;20436;-81
2023/08/26 08:14:36;;;;;;;3.70;2.33;;;22.30;99.90;;;;;;5061155;28;20551;-81
2023/08/26 08:17:04;;;;;;;3.27;2.93;;;22.00;99.90;;;;;;5053486;28;20611;-82
2023/08/26 08:19:31;;;;;;;3.20;2.63;;;21.70;99.90;;;;;;5063097;28;20476;-81
2023/08/26 08:21:58;;;;;;;3.03;2.80;;;21.50;99.90;;;;;;5062347;28;20974;-81
2023/08/26 08:24:25;;;;;;;3.30;3.03;;;21.30;99.90;;;;;;5052977;28;20506;-82
2023/08/26 08:26:52;;;;;;;2.37;2.27;;;21.20;99.90;;;;;;5060699;28;20554;-81
2023/08/26 08:29:19;;;;;;;2.23;2.03;;;21.10;99.90;;;;;;5056852;28;20481;-82
2023/08/26 08:31:46;;;;;;;3.73;2.90;;;21.10;99.90;;;;;;5065565;28;20488;-82
2023/08/26 08:34:14;;;;;;;4.13;2.53;;;21.00;99.90;;;;;;5055834;28;21115;-81
2023/08/26 08:36:41;;;;;;;3.40;3.10;;;21.00;99.90;;;;;;5065019;28;20459;-82
2023/08/26 08:39:08;;;;;;;3.80;2.63;;;21.00;99.90;;;;;;5061408;28;20467;-80
2023/08/26 08:41:36;;;;;;;2.83;2.47;;;21.20;99.90;;;;;;5061324;28;20507;-80
2023/08/26 08:44:10;;;;;;;2.40;2.13;;;21.30;99.90;;;;;;5065707;28;20650;-81
2023/08/26 08:46:38;;;;;;;3.53;2.20;;;21.30;99.90;;;;;;5059742;28;20494;-80
2023/08/26 08:49:06;;;;;;;2.50;2.30;;;21.50;99.90;;;;;;5063867;28;20926;-80
2023/08/26 08:51:34;;;;;;;1.93;1.83;;;21.50;99.90;;;;;;5062964;28;20467;-81
2023/08/26 08:54:04;;;;;;;5.40;3.43;;;21.40;99.90;;;;;;5063236;28;20475;-80
2023/08/26 08:56:33;;;;;;;3.53;3.30;;;21.70;99.90;;;;;;5055903;28;20455;-80
2023/08/26 08:59:01;;;;;;;3.07;2.30;;;22.00;99.90;;;;;;5056914;28;20501;-81
2023/08/26 09:01:31;;;;;;;2.43;2.20;;;22.00;99.90;;;;;;5060056;28;20606;-80
2023/08/26 09:03:58;;;;;;;7.50;2.03;;;22.10;99.90;;;;;;5060661;28;21186;-80
2023/08/26 09:06:25;;;;;;;2.37;2.20;;;22.60;99.90;;;;;;5065615;28;20480;-80
2023/08/26 09:08:59;;;;;;;1.37;1.27;;;22.90;99.90;;;;;;5063935;28;20439;-82
2023/08/26 09:11:27;;;;;;;2.10;1.90;;;23.10;99.90;;;;;;5061360;28;20468;-82
2023/08/26 09:13:54;;;;;;;2.20;1.53;;;23.20;99.90;;;;;;5058532;28;20538;-81
2023/08/26 09:16:28;;;;;;;2.00;1.90;;;23.60;99.90;;;;;;5055320;28;20448;-80
2023/08/26 09:18:56;;;;;;;3.53;2.37;;;23.90;99.90;;;;;;5057627;28;20761;-81
2023/08/26 09:21:23;;;;;;;1.50;1.37;;;24.20;99.90;;;;;;5063334;28;20664;-81
2023/08/26 09:23:52;;;;;;;6.13;1.67;;;24.70;99.90;;;;;;5059306;28;21078;-80
2023/08/26 09:26:19;;;;;;;1.57;1.47;;;24.80;99.90;;;;;;5054625;28;20927;-81
2023/08/26 09:28:51;;;;;;;2.10;1.73;;;24.70;99.90;;;;;;5058693;28;20455;-81
2023/08/26 09:31:19;;;;;;;1.60;1.40;;;24.80;99.90;;;;;;5056024;28;21080;-82
2023/08/26 09:33:50;;;;;;;2.40;1.47;;;24.80;99.90;;;;;;5056829;28;20724;-81
2023/08/26 09:36:18;;;;;;;2.57;1.80;;;24.90;99.90;;;;;;5053774;28;20479;-81
2023/08/26 09:38:47;;;;;;;1.90;1.70;;;25.00;99.90;;;;;;5067922;28;20894;-81
2023/08/26 09:41:19;;;;;;;2.07;1.70;;;25.20;99.90;;;;;;5066600;28;20475;-80
2023/08/26 09:43:47;;;;;;;2.30;2.10;;;25.50;99.90;;;;;;5065986;28;20476;-81
2023/08/26 09:46:19;;;;;;;4.10;3.80;;;25.80;99.90;;;;;;5066098;28;21038;-80
2023/08/26 09:48:47;;;;;;;4.40;1.90;;;25.40;99.90;;;;;;5065271;28;20556;-81
2023/08/26 09:51:25;;;;;;;2.13;1.93;;;25.50;99.90;;;;;;5063119;28;20548;-80
2023/08/26 09:53:55;;;;;;;2.10;2.00;;;26.00;99.90;;;;;;5066715;28;20440;-81
2023/08/26 09:56:24;;;;;;;3.00;2.80;;;26.20;99.90;;;;;;5064991;28;20490;-81
2023/08/26 09:58:51;;;;;;;2.03;1.90;;;25.70;99.90;;;;;;5059042;28;20895;-81
2023/08/26 10:01:21;;;;;;;3.40;2.30;;;26.20;99.90;;;;;;5060175;28;20989;-81
2023/08/26 10:03:51;;;;;;;4.20;3.90;;;26.30;99.90;;;;;;5065818;28;20462;-80
2023/08/26 10:06:22;;;;;;;2.80;2.60;;;26.00;99.90;;;;;;5063121;28;21409;-81
2023/08/26 10:08:55;;;;;;;2.73;2.53;;;26.20;99.90;;;;;;5066276;28;20444;-82
2023/08/26 10:11:28;;;;;;;3.13;2.40;;;26.20;99.90;;;;;;5064225;28;20546;-81
2023/08/26 10:14:01;;;;;;;5.27;4.93;;;26.20;99.90;;;;;;5065229;28;20463;-81
2023/08/26 10:16:31;;;;;;;2.27;2.10;;;26.40;99.90;;;;;;5064689;28;20543;-80
2023/08/26 10:19:00;;;;;;;3.27;2.30;;;26.50;99.90;;;;;;5065405;28;20536;-80
2023/08/26 10:21:27;;;;;;;2.47;2.27;;;26.30;99.90;;;;;;5065032;28;20483;-81
2023/08/26 10:23:55;;;;;;;2.70;2.50;;;26.60;99.90;;;;;;5066080;28;21039;-82
2023/08/26 10:26:25;;;;;;;2.60;2.30;;;26.20;99.90;;;;;;5065043;28;20496;-81
2023/08/26 10:28:55;;;;;;;1.60;1.43;;;26.40;99.90;;;;;;5061440;28;20476;-80
2023/08/26 10:31:22;;;;;;;1.70;1.53;;;26.80;99.90;;;;;;5063198;28;20452;-82
2023/08/26 10:34:13;;;;;;;1.57;1.47;;;26.50;99.90;;;;;;5056844;28;20504;-82
2023/08/26 10:36:41;;;;;;;1.83;1.37;;;26.50;99.90;;;;;;5059988;28;21117;-80
2023/08/26 10:39:15;;;;;;;3.53;1.83;;;26.10;99.90;;;;;;5062843;28;20452;-82
2023/08/26 10:42:10;;;;;;;2.77;2.20;;;26.30;99.90;;;;;;5061648;28;20558;-82
2023/08/26 10:44:38;;;;;;;3.27;2.97;;;26.50;99.90;;;;;;5064913;28;20437;-82
2023/08/26 10:47:06;;;;;;;1.80;1.70;;;26.60;99.90;;;;;;5065286;28;20475;-81
2023/08/26 10:49:34;;;;;;;2.40;2.07;;;26.70;99.90;;;;;;5063860;28;20523;-81
2023/08/26 10:52:09;;;;;;;2.27;2.07;;;26.40;99.90;;;;;;5061560;28;20468;-81
2023/08/26 10:54:36;;;;;;;2.70;1.83;;;26.20;99.90;;;;;;5060101;28;20459;-82
2023/08/26 10:57:07;;;;;;;2.33;2.13;;;26.20;99.90;;;;;;5055052;28;21142;-82
2023/08/26 10:59:37;;;;;;;2.27;2.17;;;26.00;99.90;;;;;;5066497;28;20455;-82
2023/08/26 11:02:07;;;;;;;1.50;1.40;;;26.30;99.90;;;;;;5063783;28;21090;-82
2023/08/26 11:04:35;;;;;;;2.80;1.60;;;26.50;99.90;;;;;;5059583;28;20505;-82
2023/08/26 11:07:02;;;;;;;2.20;1.93;;;26.50;99.90;;;;;;5061391;28;20547;-81
2023/08/26 11:09:29;;;;;;;2.50;2.30;;;26.10;99.90;;;;;;5059303;28;20517;-81
2023/08/26 11:11:56;;;;;;;1.93;1.53;;;26.20;99.90;;;;;;5058690;28;20469;-81
2023/08/26 11:14:32;;;;;;;6.20;1.43;;;26.40;99.90;;;;;;5067094;28;20537;-81
2023/08/26 11:17:02;;;;;;;2.57;2.37;;;26.50;99.90;;;;;;5064512;28;20463;-81
2023/08/26 11:19:30;;;;;;;1.80;1.70;;;26.20;99.90;;;;;;5064704;28;20466;-83
2023/08/26 11:21:58;;;;;;;2.23;2.10;;;26.40;99.90;;;;;;5068189;28;20511;-82
2023/08/26 11:24:31;;;;;;;2.20;2.10;;;26.40;99.90;;;;;;5061932;28;21201;-81
2023/08/26 11:26:58;;;;;;;1.80;1.60;;;26.50;99.90;;;;;;5056199;28;20963;-80
2023/08/26 11:29:24;;;;;;;1.87;1.77;;;26.70;99.90;;;;;;5056391;28;20453;-81
2023/08/26 11:31:53;;;;;;;1.57;1.47;;;26.80;99.90;;;;;;5060808;28;20443;-81
2023/08/26 11:34:24;;;;;;;1.20;1.10;;;27.00;99.90;;;;;;5055212;28;20461;-82
2023/08/26 11:36:53;;;;;;;3.93;2.10;;;27.20;99.90;;;;;;5064565;28;20464;-81
2023/08/26 11:39:20;;;;;;;2.17;1.20;;;27.50;99.90;;;;;;5055533;28;20528;-81
2023/08/26 11:41:47;;;;;;;1.13;1.03;;;26.90;98.50;;;;;;5057803;28;20507;-81
2023/08/26 11:44:15;;;;;;;3.17;1.97;;;26.90;98.20;;;;;;5062788;28;20456;-81
2023/08/26 11:46:43;;;;;;;1.80;1.20;;;26.80;98.80;;;;;;5067526;28;21183;-81
2023/08/26 11:49:12;;;;;;;1.70;1.60;;;26.80;98.20;;;;;;5058703;28;21043;-82
2023/08/26 11:51:41;;;;;;;2.73;1.63;;;26.90;99.90;;;;;;5060777;28;20455;-81
2023/08/26 11:54:09;;;;;;;2.20;2.10;;;26.50;99.90;;;;;;5058166;28;20543;-82
2023/08/26 11:56:36;;;;;;;1.57;1.47;;;26.60;99.90;;;;;;5054606;28;21063;-81
2023/08/26 11:59:18;;;;;;;1.30;1.20;;;26.90;99.90;;;;;;5054070;28;20547;-81
2023/08/26 12:01:45;;;;;;;1.70;1.60;;;27.10;99.90;;;;;;5062374;28;20513;-80
2023/08/26 12:04:15;;;;;;;2.57;1.40;;;27.20;99.70;;;;;;5058421;28;20485;-80
2023/08/26 12:06:43;;;;;;;1.90;1.80;;;26.80;99.40;;;;;;5063140;28;20899;-81
2023/08/26 12:09:11;;;;;;;2.30;1.90;;;27.10;99.90;;;;;;5053068;28;20939;-83
2023/08/26 12:11:40;;;;;;;2.23;2.10;;;27.00;99.90;;;;;;5055986;28;20444;-81
2023/08/26 12:14:17;;;;;;;1.47;1.37;;;27.20;98.90;;;;;;5062686;28;20440;-80
2023/08/26 12:16:44;;;;;;;1.83;1.73;;;27.10;98.70;;;;;;5056328;28;20994;-82
2023/08/26 12:19:16;;;;;;;1.93;1.83;;;26.90;99.60;;;;;;5054647;28;20967;-82
2023/08/26 12:21:44;;;;;;;1.73;1.63;;;26.50;99.80;;;;;;5058887;28;20500;-80
2023/08/26 12:24:11;;;;;;;2.47;2.27;;;26.60;99.90;;;;;;5061148;28;20441;-81
2023/08/26 12:26:39;;;;;;;3.53;1.93;;;26.70;99.60;;;;;;5058451;28;21164;-82
2023/08/26 12:29:06;;;;;;;1.47;1.37;;;26.90;99.90;;;;;;5060527;28;20441;-81
2023/08/26 12:31:34;;;;;;;4.37;1.73;;;27.00;99.90;;;;;;5056547;28;20707;-80
2023/08/26 12:34:01;;;;;;;1.60;1.50;;;27.00;99.90;;;;;;5059270;28;20444;-82
2023/08/26 12:36:30;;;;;;;1.50;1.40;;;27.30;99.10;;;;;;5059835;28;20464;-80
2023/08/26 12:38:57;;;;;;;3.20;2.07;;;27.70;98.50;;;;;;5056595;28;20950;-80
2023/08/26 12:41:24;;;;;;;2.50;2.20;;;27.70;98.80;;;;;;5055662;28;20497;-81
2023/08/26 12:43:53;;;;;;;1.43;1.20;;;27.70;99.30;;;;;;5062112;28;20511;-81
2023/08/26 12:46:20;;;;;;;3.30;2.47;;;27.40;98.70;;;;;;5064977;28;20462;-81
2023/08/26 12:48:48;;;;;;;1.60;1.40;;;27.10;98.50;;;;;;5067206;28;20448;-82
2023/08/26 12:51:15;;;;;;;1.90;1.70;;;27.10;97.60;;;;;;5065022;28;20460;-82